sensor_id;sensor_type;location;lat;lon;timestamp;P1;durP1;ratioP1;P2;durP2;ratioP2
69937;SDS011;57248;47.320;15.998;2023-09-08T00:00:43;3.97;;;1.10;;
69937;SDS011;57248;47.320;15.998;2023-09-08T00:03:14;4.73;;;0.90;;
69937;SDS011;57248;47.320;15.998;2023-09-08T00:05:40;3.88;;;0.85;;
69937;SDS011;57248;47.320;15.998;2023-09-08T00:08:12;4.07;;;0.88;;
69937;SDS011;57248;47.320;15.998;2023-09-08T00:10:44;3.97;;;0.80;;
69937;SDS011;57248;47.320;15.998;2023-09-08T00:13:16;3.75;;;1.00;;
69937;SDS011;57248;47.320;15.998;2023-09-08T00:15:48;4.07;;;1.15;;
69937;SDS011;57248;47.320;15.998;2023-09-08T00:18:20;5.22;;;0.95;;
69937;SDS011;57248;47.320;15.998;2023-09-08T00:20:52;4.65;;;1.20;;
69937;SDS011;57248;47.320;15.998;2023-09-08T00:23:24;4.53;;;1.13;;
69937;SDS011;57248;47.320;15.998;2023-09-08T00:25:58;5.00;;;1.10;;
69937;SDS011;57248;47.320;15.998;2023-09-08T00:28:30;4.25;;;1.10;;
69937;SDS011;57248;47.320;15.998;2023-09-08T00:31:02;3.10;;;0.80;;
69937;SDS011;57248;47.320;15.998;2023-09-08T00:33:35;3.58;;;0.85;;
69937;SDS011;57248;47.320;15.998;2023-09-08T00:36:15;3.87;;;1.10;;
69937;SDS011;57248;47.320;15.998;2023-09-08T00:38:48;3.85;;;1.00;;
69937;SDS011;57248;47.320;15.998;2023-09-08T00:41:22;5.30;;;1.08;;
69937;SDS011;57248;47.320;15.998;2023-09-08T00:43:56;4.70;;;1.20;;
69937;SDS011;57248;47.320;15.998;2023-09-08T00:46:21;4.23;;;1.17;;
69937;SDS011;57248;47.320;15.998;2023-09-08T00:48:54;3.35;;;0.80;;
69937;SDS011;57248;47.320;15.998;2023-09-08T00:51:26;4.03;;;1.20;;
69937;SDS011;57248;47.320;15.998;2023-09-08T00:53:58;3.65;;;1.15;;
69937;SDS011;57248;47.320;15.998;2023-09-08T00:56:30;3.37;;;0.90;;
69937;SDS011;57248;47.320;15.998;2023-09-08T00:59:02;4.03;;;1.00;;
69937;SDS011;57248;47.320;15.998;2023-09-08T01:01:37;3.92;;;0.88;;
69937;SDS011;57248;47.320;15.998;2023-09-08T01:04:08;4.25;;;1.10;;
69937;SDS011;57248;47.320;15.998;2023-09-08T01:06:42;3.28;;;0.85;;
69937;SDS011;57248;47.320;15.998;2023-09-08T01:09:15;3.17;;;0.80;;
69937;SDS011;57248;47.320;15.998;2023-09-08T01:11:48;3.75;;;1.10;;
69937;SDS011;57248;47.320;15.998;2023-09-08T01:14:17;4.07;;;1.20;;
69937;SDS011;57248;47.320;15.998;2023-09-08T01:16:51;4.43;;;0.85;;
69937;SDS011;57248;47.320;15.998;2023-09-08T01:19:23;5.07;;;1.08;;
69937;SDS011;57248;47.320;15.998;2023-09-08T01:27:57;3.47;;;0.85;;
69937;SDS011;57248;47.320;15.998;2023-09-08T01:30:31;4.53;;;1.00;;
69937;SDS011;57248;47.320;15.998;2023-09-08T01:33:12;4.18;;;0.90;;
69937;SDS011;57248;47.320;15.998;2023-09-08T01:35:44;5.83;;;1.07;;
69937;SDS011;57248;47.320;15.998;2023-09-08T01:38:16;3.75;;;0.95;;
69937;SDS011;57248;47.320;15.998;2023-09-08T01:40:48;5.15;;;1.05;;
69937;SDS011;57248;47.320;15.998;2023-09-08T01:43:14;4.33;;;1.10;;
69937;SDS011;57248;47.320;15.998;2023-09-08T01:45:45;4.65;;;1.13;;
69937;SDS011;57248;47.320;15.998;2023-09-08T01:48:17;4.72;;;0.90;;
69937;SDS011;57248;47.320;15.998;2023-09-08T01:50:49;5.28;;;1.10;;
69937;SDS011;57248;47.320;15.998;2023-09-08T01:53:21;4.00;;;0.80;;
69937;SDS011;57248;47.320;15.998;2023-09-08T01:55:53;3.30;;;0.80;;
69937;SDS011;57248;47.320;15.998;2023-09-08T01:58:25;4.50;;;1.00;;
69937;SDS011;57248;47.320;15.998;2023-09-08T02:00:57;5.32;;;1.00;;
69937;SDS011;57248;47.320;15.998;2023-09-08T02:03:34;4.97;;;0.82;;
69937;SDS011;57248;47.320;15.998;2023-09-08T02:06:06;5.33;;;1.03;;
69937;SDS011;57248;47.320;15.998;2023-09-08T02:08:38;4.47;;;1.10;;
69937;SDS011;57248;47.320;15.998;2023-09-08T02:11:10;3.28;;;0.80;;
69937;SDS011;57248;47.320;15.998;2023-09-08T02:13:42;4.43;;;0.93;;
69937;SDS011;57248;47.320;15.998;2023-09-08T02:16:14;6.05;;;1.10;;
69937;SDS011;57248;47.320;15.998;2023-09-08T02:18:41;4.37;;;1.27;;
69937;SDS011;57248;47.320;15.998;2023-09-08T02:21:13;4.50;;;0.90;;
69937;SDS011;57248;47.320;15.998;2023-09-08T02:23:45;4.50;;;0.77;;
69937;SDS011;57248;47.320;15.998;2023-09-08T02:26:18;3.97;;;0.85;;
69937;SDS011;57248;47.320;15.998;2023-09-08T02:28:49;5.22;;;1.00;;
69937;SDS011;57248;47.320;15.998;2023-09-08T02:31:21;3.77;;;0.90;;
69937;SDS011;57248;47.320;15.998;2023-09-08T02:33:54;5.97;;;1.27;;
69937;SDS011;57248;47.320;15.998;2023-09-08T02:36:34;4.05;;;1.08;;
69937;SDS011;57248;47.320;15.998;2023-09-08T02:39:06;3.42;;;0.80;;
69937;SDS011;57248;47.320;15.998;2023-09-08T02:41:39;6.32;;;1.02;;
69937;SDS011;57248;47.320;15.998;2023-09-08T02:44:11;3.63;;;0.80;;
69937;SDS011;57248;47.320;15.998;2023-09-08T02:46:45;4.47;;;1.08;;
69937;SDS011;57248;47.320;15.998;2023-09-08T02:49:17;4.53;;;0.88;;
69937;SDS011;57248;47.320;15.998;2023-09-08T02:51:48;4.05;;;0.85;;
69937;SDS011;57248;47.320;15.998;2023-09-08T02:54:20;3.80;;;0.70;;
69937;SDS011;57248;47.320;15.998;2023-09-08T02:56:52;4.17;;;0.80;;
69937;SDS011;57248;47.320;15.998;2023-09-08T02:59:24;4.28;;;0.88;;
69937;SDS011;57248;47.320;15.998;2023-09-08T03:01:56;5.03;;;1.15;;
69937;SDS011;57248;47.320;15.998;2023-09-08T03:04:28;4.03;;;1.17;;
69937;SDS011;57248;47.320;15.998;2023-09-08T03:06:55;3.67;;;0.90;;
69937;SDS011;57248;47.320;15.998;2023-09-08T03:09:27;3.90;;;1.07;;
69937;SDS011;57248;47.320;15.998;2023-09-08T03:11:59;4.25;;;0.98;;
69937;SDS011;57248;47.320;15.998;2023-09-08T03:14:31;7.65;;;1.13;;
69937;SDS011;57248;47.320;15.998;2023-09-08T03:16:57;4.10;;;0.87;;
69937;SDS011;57248;47.320;15.998;2023-09-08T03:19:30;5.45;;;1.10;;
69937;SDS011;57248;47.320;15.998;2023-09-08T03:22:03;3.70;;;1.00;;
69937;SDS011;57248;47.320;15.998;2023-09-08T03:24:34;2.22;;;0.70;;
69937;SDS011;57248;47.320;15.998;2023-09-08T03:27:06;3.30;;;0.65;;
69937;SDS011;57248;47.320;15.998;2023-09-08T03:29:38;3.23;;;0.80;;
69937;SDS011;57248;47.320;15.998;2023-09-08T03:32:18;4.25;;;0.90;;
69937;SDS011;57248;47.320;15.998;2023-09-08T03:34:50;4.30;;;0.90;;
69937;SDS011;57248;47.320;15.998;2023-09-08T03:37:29;3.40;;;0.90;;
69937;SDS011;57248;47.320;15.998;2023-09-08T03:40:01;5.18;;;1.10;;
69937;SDS011;57248;47.320;15.998;2023-09-08T03:42:36;3.50;;;0.90;;
69937;SDS011;57248;47.320;15.998;2023-09-08T03:45:08;4.55;;;1.00;;
69937;SDS011;57248;47.320;15.998;2023-09-08T03:47:34;5.15;;;1.15;;
69937;SDS011;57248;47.320;15.998;2023-09-08T03:50:06;5.10;;;1.10;;
69937;SDS011;57248;47.320;15.998;2023-09-08T03:52:40;5.13;;;1.30;;
69937;SDS011;57248;47.320;15.998;2023-09-08T03:55:13;4.27;;;1.00;;
69937;SDS011;57248;47.320;15.998;2023-09-08T03:57:45;5.50;;;1.42;;
69937;SDS011;57248;47.320;15.998;2023-09-08T04:00:19;6.68;;;1.15;;
69937;SDS011;57248;47.320;15.998;2023-09-08T04:02:53;4.35;;;1.30;;
69937;SDS011;57248;47.320;15.998;2023-09-08T04:05:25;4.07;;;1.13;;
69937;SDS011;57248;47.320;15.998;2023-09-08T04:08:05;3.73;;;1.00;;
69937;SDS011;57248;47.320;15.998;2023-09-08T04:10:36;5.18;;;0.88;;
69937;SDS011;57248;47.320;15.998;2023-09-08T04:13:09;6.13;;;1.40;;
69937;SDS011;57248;47.320;15.998;2023-09-08T04:15:41;5.65;;;0.98;;
69937;SDS011;57248;47.320;15.998;2023-09-08T04:18:13;6.47;;;0.88;;
69937;SDS011;57248;47.320;15.998;2023-09-08T04:20:46;5.00;;;1.47;;
69937;SDS011;57248;47.320;15.998;2023-09-08T04:23:17;5.43;;;1.35;;
69937;SDS011;57248;47.320;15.998;2023-09-08T04:25:50;4.82;;;1.33;;
69937;SDS011;57248;47.320;15.998;2023-09-08T04:28:22;5.68;;;1.35;;
69937;SDS011;57248;47.320;15.998;2023-09-08T04:30:54;5.18;;;1.48;;
69937;SDS011;57248;47.320;15.998;2023-09-08T04:33:33;4.10;;;0.97;;
69937;SDS011;57248;47.320;15.998;2023-09-08T04:36:05;4.53;;;1.23;;
69937;SDS011;57248;47.320;15.998;2023-09-08T04:38:37;6.68;;;1.67;;
69937;SDS011;57248;47.320;15.998;2023-09-08T04:41:10;5.95;;;1.58;;
69937;SDS011;57248;47.320;15.998;2023-09-08T04:43:36;4.90;;;1.60;;
69937;SDS011;57248;47.320;15.998;2023-09-08T04:46:08;6.15;;;1.30;;
69937;SDS011;57248;47.320;15.998;2023-09-08T04:48:41;4.90;;;1.17;;
69937;SDS011;57248;47.320;15.998;2023-09-08T04:51:16;5.07;;;1.30;;
69937;SDS011;57248;47.320;15.998;2023-09-08T04:53:48;5.30;;;1.42;;
69937;SDS011;57248;47.320;15.998;2023-09-08T04:56:21;4.38;;;1.17;;
69937;SDS011;57248;47.320;15.998;2023-09-08T04:58:52;5.05;;;1.30;;
69937;SDS011;57248;47.320;15.998;2023-09-08T05:01:27;4.15;;;1.10;;
69937;SDS011;57248;47.320;15.998;2023-09-08T05:03:55;3.80;;;1.23;;
69937;SDS011;57248;47.320;15.998;2023-09-08T05:06:29;4.75;;;1.10;;
69937;SDS011;57248;47.320;15.998;2023-09-08T05:09:02;3.72;;;1.00;;
69937;SDS011;57248;47.320;15.998;2023-09-08T05:11:34;4.60;;;1.30;;
69937;SDS011;57248;47.320;15.998;2023-09-08T05:14:06;3.70;;;1.00;;
69937;SDS011;57248;47.320;15.998;2023-09-08T05:16:39;3.50;;;1.10;;
69937;SDS011;57248;47.320;15.998;2023-09-08T05:19:21;4.70;;;1.15;;
69937;SDS011;57248;47.320;15.998;2023-09-08T05:21:56;4.85;;;1.33;;
69937;SDS011;57248;47.320;15.998;2023-09-08T05:24:22;5.30;;;1.30;;
69937;SDS011;57248;47.320;15.998;2023-09-08T05:26:54;5.18;;;1.75;;
69937;SDS011;57248;47.320;15.998;2023-09-08T05:29:34;5.90;;;1.80;;
69937;SDS011;57248;47.320;15.998;2023-09-08T05:32:13;5.32;;;1.60;;
69937;SDS011;57248;47.320;15.998;2023-09-08T05:34:45;6.03;;;2.05;;
69937;SDS011;57248;47.320;15.998;2023-09-08T05:37:24;6.78;;;2.13;;
69937;SDS011;57248;47.320;15.998;2023-09-08T05:39:50;10.57;;;4.13;;
69937;SDS011;57248;47.320;15.998;2023-09-08T05:42:21;5.88;;;2.13;;
69937;SDS011;57248;47.320;15.998;2023-09-08T05:44:55;5.63;;;2.00;;
69937;SDS011;57248;47.320;15.998;2023-09-08T05:47:20;5.67;;;1.73;;
69937;SDS011;57248;47.320;15.998;2023-09-08T05:50:02;4.85;;;1.90;;
69937;SDS011;57248;47.320;15.998;2023-09-08T05:52:34;5.07;;;1.80;;
69937;SDS011;57248;47.320;15.998;2023-09-08T05:55:06;4.77;;;1.93;;
69937;SDS011;57248;47.320;15.998;2023-09-08T05:57:32;4.18;;;1.70;;
69937;SDS011;57248;47.320;15.998;2023-09-08T06:00:07;5.82;;;1.70;;
69937;SDS011;57248;47.320;15.998;2023-09-08T06:02:43;6.20;;;2.03;;
69937;SDS011;57248;47.320;15.998;2023-09-08T06:05:17;4.68;;;1.63;;
69937;SDS011;57248;47.320;15.998;2023-09-08T06:07:51;4.65;;;1.80;;
69937;SDS011;57248;47.320;15.998;2023-09-08T06:10:23;5.20;;;1.70;;
69937;SDS011;57248;47.320;15.998;2023-09-08T06:12:56;5.25;;;1.88;;
69937;SDS011;57248;47.320;15.998;2023-09-08T06:15:29;5.57;;;2.23;;
69937;SDS011;57248;47.320;15.998;2023-09-08T06:18:01;6.63;;;2.10;;
69937;SDS011;57248;47.320;15.998;2023-09-08T06:20:34;5.40;;;2.13;;
69937;SDS011;57248;47.320;15.998;2023-09-08T06:23:06;4.25;;;1.80;;
69937;SDS011;57248;47.320;15.998;2023-09-08T06:25:40;5.88;;;2.22;;
69937;SDS011;57248;47.320;15.998;2023-09-08T06:28:13;4.50;;;1.73;;
69937;SDS011;57248;47.320;15.998;2023-09-08T06:30:44;4.78;;;1.75;;
69937;SDS011;57248;47.320;15.998;2023-09-08T06:33:16;4.38;;;1.95;;
69937;SDS011;57248;47.320;15.998;2023-09-08T06:35:55;4.15;;;2.00;;
69937;SDS011;57248;47.320;15.998;2023-09-08T06:38:27;5.47;;;2.33;;
69937;SDS011;57248;47.320;15.998;2023-09-08T06:41:10;6.97;;;2.40;;
69937;SDS011;57248;47.320;15.998;2023-09-08T06:43:43;4.78;;;2.35;;
69937;SDS011;57248;47.320;15.998;2023-09-08T06:46:21;5.50;;;2.70;;
69937;SDS011;57248;47.320;15.998;2023-09-08T06:48:52;4.53;;;2.35;;
69937;SDS011;57248;47.320;15.998;2023-09-08T06:51:25;6.60;;;2.63;;
69937;SDS011;57248;47.320;15.998;2023-09-08T06:53:58;11.13;;;2.83;;
69937;SDS011;57248;47.320;15.998;2023-09-08T06:56:29;9.18;;;2.70;;
69937;SDS011;57248;47.320;15.998;2023-09-08T06:59:03;4.88;;;2.70;;
69937;SDS011;57248;47.320;15.998;2023-09-08T07:01:36;6.82;;;2.67;;
69937;SDS011;57248;47.320;15.998;2023-09-08T07:04:10;5.13;;;2.88;;
69937;SDS011;57248;47.320;15.998;2023-09-08T07:06:43;5.57;;;2.77;;
69937;SDS011;57248;47.320;15.998;2023-09-08T07:09:16;5.68;;;3.40;;
69937;SDS011;57248;47.320;15.998;2023-09-08T07:11:47;5.75;;;3.15;;
69937;SDS011;57248;47.320;15.998;2023-09-08T07:14:21;6.07;;;3.85;;
69937;SDS011;57248;47.320;15.998;2023-09-08T07:16:53;5.57;;;3.30;;
69937;SDS011;57248;47.320;15.998;2023-09-08T07:19:25;6.40;;;3.60;;
69937;SDS011;57248;47.320;15.998;2023-09-08T07:21:58;5.80;;;3.88;;
69937;SDS011;57248;47.320;15.998;2023-09-08T07:24:31;5.95;;;3.78;;
69937;SDS011;57248;47.320;15.998;2023-09-08T07:27:02;5.63;;;3.58;;
69937;SDS011;57248;47.320;15.998;2023-09-08T07:29:35;5.97;;;4.57;;
69937;SDS011;57248;47.320;15.998;2023-09-08T07:32:08;7.60;;;4.90;;
69937;SDS011;57248;47.320;15.998;2023-09-08T07:34:47;6.40;;;4.60;;
69937;SDS011;57248;47.320;15.998;2023-09-08T07:37:25;7.00;;;5.18;;
69937;SDS011;57248;47.320;15.998;2023-09-08T07:39:57;6.10;;;5.10;;
69937;SDS011;57248;47.320;15.998;2023-09-08T07:42:29;6.10;;;5.38;;
69937;SDS011;57248;47.320;15.998;2023-09-08T07:45:04;7.37;;;6.23;;
69937;SDS011;57248;47.320;15.998;2023-09-08T07:47:36;6.97;;;6.03;;
69937;SDS011;57248;47.320;15.998;2023-09-08T07:50:43;6.78;;;6.07;;
69937;SDS011;57248;47.320;15.998;2023-09-08T07:53:07;7.20;;;6.32;;
69937;SDS011;57248;47.320;15.998;2023-09-08T07:55:39;7.45;;;6.70;;
69937;SDS011;57248;47.320;15.998;2023-09-08T07:58:12;7.70;;;6.90;;
69937;SDS011;57248;47.320;15.998;2023-09-08T08:00:44;8.18;;;7.38;;
69937;SDS011;57248;47.320;15.998;2023-09-08T08:03:16;7.60;;;6.88;;
69937;SDS011;57248;47.320;15.998;2023-09-08T08:05:48;8.10;;;7.30;;
69937;SDS011;57248;47.320;15.998;2023-09-08T08:08:20;7.95;;;7.25;;
69937;SDS011;57248;47.320;15.998;2023-09-08T08:10:52;8.97;;;8.17;;
69937;SDS011;57248;47.320;15.998;2023-09-08T08:13:24;8.90;;;8.20;;
69937;SDS011;57248;47.320;15.998;2023-09-08T08:15:56;7.63;;;7.03;;
69937;SDS011;57248;47.320;15.998;2023-09-08T08:18:28;8.80;;;8.00;;
69937;SDS011;57248;47.320;15.998;2023-09-08T08:20:54;9.00;;;8.20;;
69937;SDS011;57248;47.320;15.998;2023-09-08T08:23:26;9.07;;;8.38;;
69937;SDS011;57248;47.320;15.998;2023-09-08T08:25:57;8.77;;;7.80;;
69937;SDS011;57248;47.320;15.998;2023-09-08T08:28:29;9.27;;;8.50;;
69937;SDS011;57248;47.320;15.998;2023-09-08T08:31:01;9.70;;;8.90;;
69937;SDS011;57248;47.320;15.998;2023-09-08T08:33:27;9.60;;;8.80;;
69937;SDS011;57248;47.320;15.998;2023-09-08T08:36:00;8.90;;;8.10;;
69937;SDS011;57248;47.320;15.998;2023-09-08T08:38:32;9.15;;;8.35;;
69937;SDS011;57248;47.320;15.998;2023-09-08T08:41:04;9.57;;;8.83;;
69937;SDS011;57248;47.320;15.998;2023-09-08T08:43:36;9.32;;;8.52;;
69937;SDS011;57248;47.320;15.998;2023-09-08T08:46:08;10.18;;;9.38;;
69937;SDS011;57248;47.320;15.998;2023-09-08T08:48:42;9.73;;;8.93;;
69937;SDS011;57248;47.320;15.998;2023-09-08T08:51:16;10.57;;;9.68;;
69937;SDS011;57248;47.320;15.998;2023-09-08T08:53:49;9.53;;;8.67;;
69937;SDS011;57248;47.320;15.998;2023-09-08T08:56:23;9.10;;;8.35;;
69937;SDS011;57248;47.320;15.998;2023-09-08T08:58:57;11.07;;;9.73;;
69937;SDS011;57248;47.320;15.998;2023-09-08T09:01:29;9.05;;;8.25;;
69937;SDS011;57248;47.320;15.998;2023-09-08T09:04:05;9.32;;;8.60;;
69937;SDS011;57248;47.320;15.998;2023-09-08T09:06:37;9.57;;;8.77;;
69937;SDS011;57248;47.320;15.998;2023-09-08T09:09:09;7.80;;;7.00;;
69937;SDS011;57248;47.320;15.998;2023-09-08T09:11:42;7.95;;;7.25;;
69937;SDS011;57248;47.320;15.998;2023-09-08T09:14:08;7.67;;;6.90;;
69937;SDS011;57248;47.320;15.998;2023-09-08T09:16:42;8.32;;;7.63;;
69937;SDS011;57248;47.320;15.998;2023-09-08T09:19:18;7.10;;;6.47;;
69937;SDS011;57248;47.320;15.998;2023-09-08T09:21:57;7.60;;;7.00;;
69937;SDS011;57248;47.320;15.998;2023-09-08T09:24:34;9.80;;;9.00;;
69937;SDS011;57248;47.320;15.998;2023-09-08T09:27:09;8.80;;;8.10;;
69937;SDS011;57248;47.320;15.998;2023-09-08T09:29:48;8.70;;;7.90;;
69937;SDS011;57248;47.320;15.998;2023-09-08T09:32:24;8.77;;;8.07;;
69937;SDS011;57248;47.320;15.998;2023-09-08T09:34:57;7.50;;;6.80;;
69937;SDS011;57248;47.320;15.998;2023-09-08T09:37:36;8.27;;;7.57;;
69937;SDS011;57248;47.320;15.998;2023-09-08T09:40:11;9.43;;;8.63;;
69937;SDS011;57248;47.320;15.998;2023-09-08T09:42:44;10.43;;;9.63;;
69937;SDS011;57248;47.320;15.998;2023-09-08T09:45:18;10.43;;;9.63;;
69937;SDS011;57248;47.320;15.998;2023-09-08T09:47:51;10.45;;;9.55;;
69937;SDS011;57248;47.320;15.998;2023-09-08T09:53:13;9.70;;;9.00;;
69937;SDS011;57248;47.320;15.998;2023-09-08T09:55:47;9.45;;;8.75;;
69937;SDS011;57248;47.320;15.998;2023-09-08T09:58:19;8.95;;;8.25;;
69937;SDS011;57248;47.320;15.998;2023-09-08T10:00:52;10.20;;;9.40;;
69937;SDS011;57248;47.320;15.998;2023-09-08T10:03:19;9.47;;;8.67;;
69937;SDS011;57248;47.320;15.998;2023-09-08T10:05:52;9.68;;;8.88;;
69937;SDS011;57248;47.320;15.998;2023-09-08T10:08:19;9.45;;;8.75;;
69937;SDS011;57248;47.320;15.998;2023-09-08T10:10:50;8.00;;;7.30;;
69937;SDS011;57248;47.320;15.998;2023-09-08T10:13:28;9.50;;;8.77;;
69937;SDS011;57248;47.320;15.998;2023-09-08T10:16:04;7.63;;;7.03;;
69937;SDS011;57248;47.320;15.998;2023-09-08T10:18:39;7.82;;;7.13;;
69937;SDS011;57248;47.320;15.998;2023-09-08T10:21:17;7.30;;;6.70;;
69937;SDS011;57248;47.320;15.998;2023-09-08T10:23:54;7.75;;;7.07;;
69937;SDS011;57248;47.320;15.998;2023-09-08T10:26:32;7.22;;;6.63;;
69937;SDS011;57248;47.320;15.998;2023-09-08T10:29:05;8.57;;;7.23;;
69937;SDS011;57248;47.320;15.998;2023-09-08T10:31:38;7.78;;;7.05;;
69937;SDS011;57248;47.320;15.998;2023-09-08T10:34:17;8.35;;;7.65;;
69937;SDS011;57248;47.320;15.998;2023-09-08T10:36:49;8.00;;;7.20;;
69937;SDS011;57248;47.320;15.998;2023-09-08T10:47:22;8.82;;;7.97;;
69937;SDS011;57248;47.320;15.998;2023-09-08T10:49:57;8.30;;;7.60;;
69937;SDS011;57248;47.320;15.998;2023-09-08T10:52:25;7.63;;;7.03;;
69937;SDS011;57248;47.320;15.998;2023-09-08T10:54:58;8.77;;;7.77;;
69937;SDS011;57248;47.320;15.998;2023-09-08T10:57:29;8.32;;;7.63;;
69937;SDS011;57248;47.320;15.998;2023-09-08T11:00:05;7.85;;;7.15;;
69937;SDS011;57248;47.320;15.998;2023-09-08T11:02:50;7.85;;;7.25;;
69937;SDS011;57248;47.320;15.998;2023-09-08T11:05:21;8.75;;;7.93;;
69937;SDS011;57248;47.320;15.998;2023-09-08T11:07:55;9.07;;;8.27;;
69937;SDS011;57248;47.320;15.998;2023-09-08T11:10:28;9.00;;;8.30;;
69937;SDS011;57248;47.320;15.998;2023-09-08T11:12:56;9.18;;;8.38;;
69937;SDS011;57248;47.320;15.998;2023-09-08T11:15:28;9.25;;;8.55;;
69937;SDS011;57248;47.320;15.998;2023-09-08T11:18:05;8.40;;;7.73;;
69937;SDS011;57248;47.320;15.998;2023-09-08T11:20:38;8.57;;;7.88;;
69937;SDS011;57248;47.320;15.998;2023-09-08T11:23:10;8.75;;;8.05;;
69937;SDS011;57248;47.320;15.998;2023-09-08T11:25:42;7.82;;;7.22;;
69937;SDS011;57248;47.320;15.998;2023-09-08T11:28:22;9.20;;;8.50;;
69937;SDS011;57248;47.320;15.998;2023-09-08T11:31:01;11.10;;;8.43;;
69937;SDS011;57248;47.320;15.998;2023-09-08T11:33:35;9.10;;;8.27;;
69937;SDS011;57248;47.320;15.998;2023-09-08T11:36:20;8.77;;;7.97;;
69937;SDS011;57248;47.320;15.998;2023-09-08T11:38:52;8.85;;;7.95;;
69937;SDS011;57248;47.320;15.998;2023-09-08T11:41:25;9.25;;;8.45;;
69937;SDS011;57248;47.320;15.998;2023-09-08T11:43:56;7.83;;;7.10;;
69937;SDS011;57248;47.320;15.998;2023-09-08T11:46:30;9.05;;;8.25;;
69937;SDS011;57248;47.320;15.998;2023-09-08T11:48:55;10.35;;;9.55;;
69937;SDS011;57248;47.320;15.998;2023-09-08T11:51:30;10.88;;;9.98;;
69937;SDS011;57248;47.320;15.998;2023-09-08T11:54:02;10.63;;;9.73;;
69937;SDS011;57248;47.320;15.998;2023-09-08T11:56:33;10.55;;;9.65;;
69937;SDS011;57248;47.320;15.998;2023-09-08T11:59:07;9.05;;;7.32;;
69937;SDS011;57248;47.320;15.998;2023-09-08T12:01:39;7.65;;;6.88;;
69937;SDS011;57248;47.320;15.998;2023-09-08T12:04:28;8.00;;;7.30;;
69937;SDS011;57248;47.320;15.998;2023-09-08T12:07:02;8.43;;;7.20;;
69937;SDS011;57248;47.320;15.998;2023-09-08T12:09:35;8.73;;;7.90;;
69937;SDS011;57248;47.320;15.998;2023-09-08T12:12:00;7.80;;;7.00;;
69937;SDS011;57248;47.320;15.998;2023-09-08T12:14:39;8.07;;;7.32;;
69937;SDS011;57248;47.320;15.998;2023-09-08T12:17:13;8.15;;;7.30;;
69937;SDS011;57248;47.320;15.998;2023-09-08T12:19:50;9.25;;;8.30;;
69937;SDS011;57248;47.320;15.998;2023-09-08T12:22:22;9.88;;;9.10;;
69937;SDS011;57248;47.320;15.998;2023-09-08T12:27:28;8.30;;;7.60;;
69937;SDS011;57248;47.320;15.998;2023-09-08T12:30:00;8.35;;;7.65;;
69937;SDS011;57248;47.320;15.998;2023-09-08T12:32:33;7.88;;;7.18;;
69937;SDS011;57248;47.320;15.998;2023-09-08T12:35:06;8.45;;;7.75;;
69937;SDS011;57248;47.320;15.998;2023-09-08T12:37:45;7.50;;;6.57;;
69937;SDS011;57248;47.320;15.998;2023-09-08T12:40:17;7.30;;;6.30;;
69937;SDS011;57248;47.320;15.998;2023-09-08T12:42:49;7.45;;;6.85;;
69937;SDS011;57248;47.320;15.998;2023-09-08T12:45:21;8.48;;;7.75;;
69937;SDS011;57248;47.320;15.998;2023-09-08T12:48:00;8.43;;;7.72;;
69937;SDS011;57248;47.320;15.998;2023-09-08T12:50:35;8.97;;;8.27;;
69937;SDS011;57248;47.320;15.998;2023-09-08T12:53:07;9.30;;;8.60;;
69937;SDS011;57248;47.320;15.998;2023-09-08T12:55:40;8.75;;;8.07;;
69937;SDS011;57248;47.320;15.998;2023-09-08T12:58:12;7.90;;;7.20;;
69937;SDS011;57248;47.320;15.998;2023-09-08T13:00:45;8.98;;;8.05;;
69937;SDS011;57248;47.320;15.998;2023-09-08T13:03:17;7.43;;;6.73;;
69937;SDS011;57248;47.320;15.998;2023-09-08T13:05:50;7.68;;;6.68;;
69937;SDS011;57248;47.320;15.998;2023-09-08T13:08:15;8.45;;;7.75;;
69937;SDS011;57248;47.320;15.998;2023-09-08T13:10:48;8.33;;;7.63;;
69937;SDS011;57248;47.320;15.998;2023-09-08T13:13:20;7.68;;;6.97;;
69937;SDS011;57248;47.320;15.998;2023-09-08T13:15:52;7.55;;;6.80;;
69937;SDS011;57248;47.320;15.998;2023-09-08T13:18:25;7.45;;;6.75;;
69937;SDS011;57248;47.320;15.998;2023-09-08T13:20:57;7.50;;;6.90;;
69937;SDS011;57248;47.320;15.998;2023-09-08T13:23:30;8.13;;;7.47;;
69937;SDS011;57248;47.320;15.998;2023-09-08T13:26:02;8.35;;;7.55;;
69937;SDS011;57248;47.320;15.998;2023-09-08T13:28:27;8.23;;;7.40;;
69937;SDS011;57248;47.320;15.998;2023-09-08T13:31:01;8.70;;;7.78;;
69937;SDS011;57248;47.320;15.998;2023-09-08T13:33:33;8.23;;;7.45;;
69937;SDS011;57248;47.320;15.998;2023-09-08T13:36:05;8.10;;;7.43;;
69937;SDS011;57248;47.320;15.998;2023-09-08T13:38:37;7.45;;;6.78;;
69937;SDS011;57248;47.320;15.998;2023-09-08T13:41:09;6.87;;;6.20;;
69937;SDS011;57248;47.320;15.998;2023-09-08T13:43:41;7.57;;;6.88;;
69937;SDS011;57248;47.320;15.998;2023-09-08T13:46:13;8.07;;;7.38;;
69937;SDS011;57248;47.320;15.998;2023-09-08T13:48:45;7.47;;;6.78;;
69937;SDS011;57248;47.320;15.998;2023-09-08T13:51:17;7.88;;;7.18;;
69937;SDS011;57248;47.320;15.998;2023-09-08T13:53:49;7.03;;;6.40;;
69937;SDS011;57248;47.320;15.998;2023-09-08T13:56:21;6.40;;;5.72;;
69937;SDS011;57248;47.320;15.998;2023-09-08T13:58:53;6.97;;;6.38;;
69937;SDS011;57248;47.320;15.998;2023-09-08T14:01:25;6.45;;;5.53;;
69937;SDS011;57248;47.320;15.998;2023-09-08T14:04:01;6.30;;;5.50;;
69937;SDS011;57248;47.320;15.998;2023-09-08T14:06:34;5.93;;;5.33;;
69937;SDS011;57248;47.320;15.998;2023-09-08T14:09:06;5.80;;;5.30;;
69937;SDS011;57248;47.320;15.998;2023-09-08T14:11:38;5.95;;;5.35;;
69937;SDS011;57248;47.320;15.998;2023-09-08T14:14:10;6.53;;;5.05;;
69937;SDS011;57248;47.320;15.998;2023-09-08T14:16:42;6.55;;;5.50;;
69937;SDS011;57248;47.320;15.998;2023-09-08T14:19:07;6.37;;;5.10;;
69937;SDS011;57248;47.320;15.998;2023-09-08T14:21:39;6.47;;;5.40;;
69937;SDS011;57248;47.320;15.998;2023-09-08T14:24:11;5.33;;;4.83;;
69937;SDS011;57248;47.320;15.998;2023-09-08T14:26:43;5.80;;;4.50;;
69937;SDS011;57248;47.320;15.998;2023-09-08T14:29:15;5.40;;;4.90;;
69937;SDS011;57248;47.320;15.998;2023-09-08T14:31:47;5.28;;;4.45;;
69937;SDS011;57248;47.320;15.998;2023-09-08T14:34:26;6.25;;;4.88;;
69937;SDS011;57248;47.320;15.998;2023-09-08T14:36:58;6.33;;;4.80;;
69937;SDS011;57248;47.320;15.998;2023-09-08T14:39:31;7.53;;;4.97;;
69937;SDS011;57248;47.320;15.998;2023-09-08T14:42:03;7.60;;;4.32;;
69937;SDS011;57248;47.320;15.998;2023-09-08T14:44:36;5.07;;;4.07;;
69937;SDS011;57248;47.320;15.998;2023-09-08T14:47:08;5.15;;;4.13;;
69937;SDS011;57248;47.320;15.998;2023-09-08T14:49:41;7.03;;;4.00;;
69937;SDS011;57248;47.320;15.998;2023-09-08T14:52:13;4.90;;;3.90;;
69937;SDS011;57248;47.320;15.998;2023-09-08T14:54:46;5.38;;;3.80;;
69937;SDS011;57248;47.320;15.998;2023-09-08T14:57:18;4.97;;;3.30;;
69937;SDS011;57248;47.320;15.998;2023-09-08T14:59:52;4.95;;;3.80;;
69937;SDS011;57248;47.320;15.998;2023-09-08T15:02:27;5.93;;;3.60;;
69937;SDS011;57248;47.320;15.998;2023-09-08T15:04:59;5.78;;;3.25;;
69937;SDS011;57248;47.320;15.998;2023-09-08T15:07:31;4.72;;;3.67;;
69937;SDS011;57248;47.320;15.998;2023-09-08T15:10:03;6.30;;;4.00;;
69937;SDS011;57248;47.320;15.998;2023-09-08T15:12:37;6.20;;;4.00;;
69937;SDS011;57248;47.320;15.998;2023-09-08T15:15:09;5.10;;;3.73;;
69937;SDS011;57248;47.320;15.998;2023-09-08T15:17:41;5.85;;;4.35;;
69937;SDS011;57248;47.320;15.998;2023-09-08T15:20:06;5.03;;;4.18;;
69937;SDS011;57248;47.320;15.998;2023-09-08T15:22:41;5.90;;;3.87;;
69937;SDS011;57248;47.320;15.998;2023-09-08T15:25:13;4.90;;;3.67;;